createdAt,value
2018-10-05T00:01:15.463Z,58.95
2018-10-05T00:03:50.392Z,48.73
2018-10-05T00:06:25.216Z,57.00
2018-10-05T00:09:00.248Z,58.05
2018-10-05T00:11:35.020Z,54.95
2018-10-05T00:14:10.185Z,51.10
2018-10-05T00:16:45.064Z,62.98
2018-10-05T00:19:19.939Z,55.50
2018-10-05T00:21:54.677Z,57.48
2018-10-05T00:24:29.508Z,53.35
2018-10-05T00:27:04.634Z,55.85
2018-10-05T00:29:39.585Z,59.83
2018-10-05T00:32:14.593Z,49.75
2018-10-05T00:34:49.410Z,48.48
2018-10-05T00:37:24.340Z,53.83
2018-10-05T00:39:59.143Z,55.28
2018-10-05T00:42:34.044Z,54.08
2018-10-05T00:45:08.810Z,55.30
2018-10-05T00:47:43.811Z,51.37
2018-10-05T00:50:18.753Z,58.98
2018-10-05T00:52:53.678Z,48.40
2018-10-05T00:55:28.686Z,50.95
2018-10-05T00:58:03.569Z,56.50
2018-10-05T01:00:38.440Z,58.63
2018-10-05T01:03:13.373Z,53.85
2018-10-05T01:05:48.299Z,50.48
2018-10-05T01:08:23.192Z,54.90
2018-10-05T01:10:58.152Z,54.40
2018-10-05T01:13:33.141Z,51.48
2018-10-05T01:16:07.937Z,54.10
2018-10-05T01:18:42.828Z,52.88
2018-10-05T01:21:17.593Z,50.40
2018-10-05T01:23:52.364Z,53.00
2018-10-05T01:26:27.209Z,52.45
2018-10-05T01:29:02.394Z,42.95
2018-10-05T01:31:37.469Z,54.77
2018-10-05T01:34:12.723Z,55.55
2018-10-05T01:36:48.094Z,56.85
2018-10-05T01:39:23.349Z,54.42
2018-10-05T01:41:58.551Z,53.90
2018-10-05T01:44:33.706Z,54.48
2018-10-05T01:47:09.060Z,61.25
2018-10-05T01:49:44.318Z,56.10
2018-10-05T01:52:19.682Z,48.70
2018-10-05T01:54:54.725Z,58.38
2018-10-05T01:57:30.154Z,49.03
2018-10-05T02:00:05.403Z,47.90
2018-10-05T02:02:40.989Z,51.40
2018-10-05T02:05:16.215Z,48.13
2018-10-05T02:07:51.604Z,50.98
2018-10-05T02:10:26.830Z,52.80
2018-10-05T02:13:02.208Z,46.73
2018-10-05T02:15:37.610Z,45.92
2018-10-05T02:18:13.267Z,49.08
2018-10-05T02:20:48.654Z,50.73
2018-10-05T02:23:23.945Z,49.95
2018-10-05T02:25:59.256Z,50.05
2018-10-05T02:28:34.484Z,45.55
2018-10-05T02:31:09.386Z,46.20
2018-10-05T02:33:44.510Z,48.40
2018-10-05T02:36:19.756Z,40.73
2018-10-05T02:38:55.330Z,47.40
2018-10-05T02:41:30.495Z,50.00
2018-10-05T02:44:05.915Z,43.85
2018-10-05T02:46:41.071Z,50.08
2018-10-05T02:49:16.560Z,43.70
2018-10-05T02:51:51.761Z,46.88
2018-10-05T02:54:27.136Z,53.42
2018-10-05T02:57:02.424Z,52.48
2018-10-05T02:59:37.617Z,52.88
2018-10-05T03:02:24.430Z,53.78
2018-10-05T03:05:00.162Z,56.20
2018-10-05T03:07:35.108Z,43.28
2018-10-05T03:10:10.031Z,40.23
2018-10-05T03:12:44.792Z,50.65
2018-10-05T03:15:19.600Z,46.63
2018-10-05T03:17:54.407Z,44.58
2018-10-05T03:20:29.150Z,45.33
2018-10-05T03:23:04.001Z,42.65
2018-10-05T03:25:39.052Z,41.63
2018-10-05T03:28:13.761Z,43.33
2018-10-05T03:30:48.651Z,44.80
2018-10-05T03:33:23.523Z,42.83
2018-10-05T03:35:58.528Z,43.52
2018-10-05T03:38:33.292Z,47.33
2018-10-05T03:41:08.210Z,41.85
2018-10-05T03:43:43.113Z,42.20
2018-10-05T03:46:17.976Z,45.65
2018-10-05T03:48:53.615Z,48.15
2018-10-05T03:51:29.338Z,37.95
2018-10-05T03:54:05.186Z,37.58
2018-10-05T03:56:40.412Z,36.28
2018-10-05T03:59:15.212Z,43.08
2018-10-05T04:01:50.027Z,46.92
2018-10-05T04:04:24.877Z,47.50
2018-10-05T04:06:59.947Z,45.10
2018-10-05T04:09:34.987Z,44.15
2018-10-05T04:12:09.837Z,45.35
2018-10-05T04:14:44.579Z,43.05
2018-10-05T04:17:19.499Z,49.65
2018-10-05T04:19:54.236Z,48.50
2018-10-05T04:22:30.540Z,43.85
2018-10-05T04:25:05.467Z,44.98
2018-10-05T04:27:40.379Z,43.40
2018-10-05T04:30:15.173Z,42.95
2018-10-05T04:32:50.041Z,41.98
2018-10-05T04:35:24.922Z,40.73
2018-10-05T04:37:59.807Z,40.15
2018-10-05T04:40:34.676Z,45.73
2018-10-05T04:43:09.734Z,42.00
2018-10-05T04:45:44.703Z,38.30
2018-10-05T04:48:19.570Z,47.65
2018-10-05T04:50:54.413Z,43.70
2018-10-05T04:53:30.911Z,36.98
2018-10-05T04:56:05.795Z,44.00
2018-10-05T04:58:40.709Z,42.08
2018-10-05T05:01:15.506Z,43.02
2018-10-05T05:03:50.365Z,43.63
2018-10-05T05:06:25.296Z,38.25
2018-10-05T05:09:00.061Z,40.95
2018-10-05T05:11:35.043Z,39.83
2018-10-05T05:14:09.896Z,35.15
2018-10-05T05:16:44.772Z,38.08
2018-10-05T05:19:19.748Z,39.20
2018-10-05T05:21:54.744Z,40.75
2018-10-05T05:24:30.639Z,41.10
2018-10-05T05:27:05.459Z,39.83
2018-10-05T05:29:40.310Z,38.13
2018-10-05T05:32:15.284Z,39.73
2018-10-05T05:34:50.249Z,41.02
2018-10-05T05:37:25.662Z,39.75
2018-10-05T05:40:00.655Z,42.90
2018-10-05T05:42:35.359Z,42.15
2018-10-05T05:45:10.327Z,47.35
2018-10-05T05:47:45.042Z,43.58
2018-10-05T05:50:20.025Z,44.67
2018-10-05T05:52:54.809Z,41.45
2018-10-05T05:55:29.624Z,42.73
2018-10-05T05:58:04.483Z,49.30
2018-10-05T06:00:39.431Z,47.73
2018-10-05T06:03:14.484Z,38.30
2018-10-05T06:05:49.453Z,45.52
2018-10-05T06:08:24.285Z,46.02
2018-10-05T06:10:59.165Z,44.50
2018-10-05T06:13:33.905Z,39.73
2018-10-05T06:16:09.051Z,40.85
2018-10-05T06:18:43.792Z,37.63
2018-10-05T06:21:18.633Z,42.90
2018-10-05T06:23:53.459Z,41.92
2018-10-05T06:26:28.279Z,38.15
2018-10-05T06:29:03.115Z,34.50
2018-10-05T06:31:37.951Z,39.18
2018-10-05T06:34:12.808Z,37.53
2018-10-05T06:36:47.741Z,33.33
2018-10-05T06:39:22.578Z,35.08
2018-10-05T06:41:57.627Z,34.33
2018-10-05T06:44:32.380Z,31.62
2018-10-05T06:47:07.268Z,29.45
2018-10-05T06:53:08.549Z,37.85
2018-10-05T06:55:44.101Z,34.53
2018-10-05T06:58:19.465Z,32.05
2018-10-05T07:00:54.833Z,35.90
2018-10-05T07:03:30.154Z,34.43
2018-10-05T07:06:05.501Z,31.23
2018-10-05T07:08:40.934Z,34.35
2018-10-05T07:11:16.575Z,33.60
2018-10-05T07:13:52.012Z,31.77
2018-10-05T07:16:27.464Z,34.88
2018-10-05T07:19:02.823Z,33.40
2018-10-05T07:21:38.273Z,34.23
2018-10-05T07:24:13.798Z,29.12
2018-10-05T07:26:49.560Z,32.50
2018-10-05T07:29:25.094Z,31.25
2018-10-05T07:32:00.476Z,35.52
2018-10-05T07:34:35.985Z,33.67
2018-10-05T07:37:11.413Z,36.33
2018-10-05T07:39:46.851Z,35.75
2018-10-05T07:42:22.213Z,34.55
2018-10-05T07:44:57.493Z,40.63
2018-10-05T07:47:33.099Z,28.83
2018-10-05T07:50:08.841Z,44.53
2018-10-05T07:52:44.185Z,34.10
2018-10-05T07:55:19.634Z,33.23
2018-10-05T07:57:55.031Z,32.35
2018-10-05T08:00:30.334Z,30.20
2018-10-05T08:03:05.855Z,31.90
2018-10-05T08:05:41.124Z,32.28
2018-10-05T08:08:16.443Z,33.18
2018-10-05T08:10:52.224Z,36.40
2018-10-05T08:13:27.831Z,31.77
2018-10-05T08:16:03.341Z,31.02
2018-10-05T08:18:38.696Z,31.57
2018-10-05T08:21:14.113Z,39.05
2018-10-05T08:23:49.503Z,38.15
2018-10-05T08:26:24.912Z,35.20
2018-10-05T08:29:00.198Z,33.53
2018-10-05T08:31:35.475Z,36.50
2018-10-05T08:34:10.841Z,32.80
2018-10-05T08:36:46.011Z,34.03
2018-10-05T08:39:21.414Z,30.10
2018-10-05T08:41:56.613Z,32.50
2018-10-05T08:44:31.921Z,26.27
2018-10-05T08:47:07.216Z,34.92
2018-10-05T08:49:42.773Z,33.65
2018-10-05T08:52:18.221Z,31.90
2018-10-05T08:54:53.911Z,29.12
2018-10-05T08:57:29.383Z,33.78
2018-10-05T09:00:05.054Z,38.10
2018-10-05T09:02:40.588Z,31.73
2018-10-05T09:05:16.262Z,31.85
2018-10-05T09:07:51.794Z,35.70
2018-10-05T09:10:27.409Z,30.40
2018-10-05T09:13:03.144Z,32.80
2018-10-05T09:15:38.731Z,28.35
2018-10-05T09:18:14.247Z,23.07
2018-10-05T09:20:49.771Z,28.45
2018-10-05T09:23:25.474Z,30.77
2018-10-05T09:26:01.191Z,32.65
2018-10-05T09:28:36.483Z,27.70
2018-10-05T09:31:12.087Z,25.25
2018-10-05T09:33:47.784Z,30.55
2018-10-05T09:36:23.180Z,30.20
2018-10-05T09:38:58.821Z,28.35
2018-10-05T09:41:34.191Z,25.75
2018-10-05T09:44:09.725Z,28.90
2018-10-05T09:46:45.203Z,25.97
2018-10-05T09:49:20.513Z,25.17
2018-10-05T09:51:56.103Z,28.52
2018-10-05T09:54:31.733Z,28.60
2018-10-05T09:57:07.331Z,29.52
2018-10-05T09:59:42.847Z,30.45
2018-10-05T10:02:23.433Z,29.10
2018-10-05T10:04:58.723Z,24.87
2018-10-05T10:07:34.272Z,26.15
2018-10-05T10:10:09.903Z,29.35
2018-10-05T10:12:45.444Z,27.42
2018-10-05T10:15:21.133Z,27.70
2018-10-05T10:17:56.564Z,35.43
2018-10-05T10:20:32.062Z,23.18
2018-10-05T10:23:07.321Z,28.35
2018-10-05T10:25:42.761Z,28.90
2018-10-05T10:28:18.371Z,27.55
2018-10-05T10:30:53.765Z,25.23
2018-10-05T10:33:29.025Z,28.37
2018-10-05T10:36:04.690Z,28.15
2018-10-05T10:38:40.231Z,32.78
2018-10-05T10:41:15.764Z,23.33
2018-10-05T10:43:51.994Z,25.88
2018-10-05T10:46:27.752Z,22.80
2018-10-05T10:49:03.300Z,23.47
2018-10-05T10:51:38.636Z,22.37
2018-10-05T10:54:14.053Z,25.77
2018-10-05T10:56:51.011Z,24.10
2018-10-05T10:59:26.446Z,26.63
2018-10-05T11:02:01.868Z,22.23
2018-10-05T11:04:37.532Z,25.77
2018-10-05T11:07:14.263Z,21.50
2018-10-05T11:09:49.945Z,21.33
2018-10-05T11:12:25.611Z,23.07
2018-10-05T11:15:01.162Z,19.50
2018-10-05T11:17:36.511Z,21.77
2018-10-05T11:20:11.991Z,22.50
2018-10-05T11:22:47.499Z,20.70
2018-10-05T11:25:23.759Z,20.60
2018-10-05T11:27:59.268Z,37.67
2018-10-05T11:30:34.765Z,27.00
2018-10-05T11:33:10.455Z,18.77
2018-10-05T11:35:45.684Z,20.80
2018-10-05T11:38:21.508Z,20.90
2018-10-05T11:40:56.918Z,20.80
2018-10-05T11:43:32.250Z,21.50
2018-10-05T11:46:08.017Z,20.50
2018-10-05T11:48:43.728Z,21.97
2018-10-05T11:51:19.160Z,25.70
2018-10-05T11:53:54.840Z,18.70
2018-10-05T11:56:30.385Z,19.27
2018-10-05T11:59:05.733Z,19.03
2018-10-05T12:01:41.094Z,19.73
2018-10-05T12:04:16.505Z,21.17
2018-10-05T12:06:51.844Z,21.53
2018-10-05T12:09:27.252Z,20.60
2018-10-05T12:12:02.851Z,20.20
2018-10-05T12:14:38.191Z,17.23
2018-10-05T12:17:13.401Z,18.90
2018-10-05T12:19:48.898Z,23.03
2018-10-05T12:22:24.527Z,38.10
2018-10-05T12:25:02.890Z,24.80
2018-10-05T12:27:38.134Z,25.23
2018-10-05T12:30:13.875Z,17.43
2018-10-05T12:32:49.291Z,13.63
2018-10-05T12:35:24.883Z,15.00
2018-10-05T12:38:00.312Z,14.27
2018-10-05T12:40:35.721Z,14.20
2018-10-05T12:43:11.344Z,12.37
2018-10-05T12:45:46.772Z,12.60
2018-10-05T12:48:22.023Z,9.63
2018-10-05T12:50:57.642Z,10.83
2018-10-05T12:53:33.003Z,9.97
2018-10-05T12:56:08.657Z,10.30
2018-10-05T12:58:44.289Z,9.83
2018-10-05T13:01:19.981Z,7.80
2018-10-05T13:03:55.464Z,6.97
2018-10-05T13:06:31.144Z,7.07
2018-10-05T13:09:08.190Z,5.97
2018-10-05T13:11:43.644Z,5.30
2018-10-05T13:14:19.101Z,8.07
2018-10-05T13:16:54.610Z,7.63
2018-10-05T13:19:30.016Z,7.37
2018-10-05T13:22:05.461Z,8.60
2018-10-05T13:24:40.904Z,6.70
2018-10-05T13:27:16.326Z,6.10
2018-10-05T13:29:51.541Z,7.47
2018-10-05T13:32:26.904Z,5.97
2018-10-05T13:35:02.496Z,8.60
2018-10-05T13:37:37.902Z,7.30
2018-10-05T13:40:13.554Z,5.87
2018-10-05T13:42:48.996Z,5.70
2018-10-05T13:45:24.212Z,8.37
2018-10-05T13:47:59.783Z,6.80
2018-10-05T13:50:35.123Z,6.57
2018-10-05T13:53:10.563Z,6.60
2018-10-05T13:55:45.820Z,8.43
2018-10-05T13:58:21.142Z,8.20
2018-10-05T14:00:56.516Z,8.73
2018-10-05T14:03:31.701Z,7.17
2018-10-05T14:06:06.951Z,7.40
2018-10-05T14:08:42.378Z,6.13
2018-10-05T14:11:17.732Z,7.43
2018-10-05T14:13:53.068Z,5.70
2018-10-05T14:16:28.678Z,6.97
2018-10-05T14:19:04.277Z,5.60
2018-10-05T14:21:39.862Z,5.43
2018-10-05T14:24:15.445Z,7.93
2018-10-05T14:26:51.139Z,8.33
2018-10-05T14:29:26.570Z,9.37
2018-10-05T14:32:01.948Z,7.60
2018-10-05T14:34:37.456Z,6.87
2018-10-05T14:37:12.923Z,11.73
2018-10-05T14:39:48.244Z,5.53
2018-10-05T14:42:23.651Z,7.57
2018-10-05T14:44:59.142Z,8.00
2018-10-05T14:47:34.403Z,7.60
2018-10-05T14:50:10.011Z,7.83
2018-10-05T14:52:45.395Z,5.03
2018-10-05T14:55:23.980Z,6.50
2018-10-05T14:57:59.518Z,5.10
2018-10-05T15:00:34.997Z,4.63
2018-10-05T15:03:10.303Z,6.53
2018-10-05T15:05:45.872Z,4.77
2018-10-05T15:08:21.513Z,5.23
2018-10-05T15:10:57.050Z,5.30
2018-10-05T15:13:32.513Z,3.87
2018-10-05T15:16:08.221Z,4.60
2018-10-05T15:18:43.683Z,3.57
2018-10-05T15:21:19.207Z,5.03
2018-10-05T15:23:54.592Z,5.00
2018-10-05T15:26:30.118Z,4.30
2018-10-05T15:29:05.371Z,4.60
2018-10-05T15:31:41.330Z,3.30
2018-10-05T15:34:16.663Z,11.57
2018-10-05T15:36:52.319Z,17.60
2018-10-05T15:39:27.661Z,8.10
2018-10-05T15:42:03.123Z,7.60
2018-10-05T15:44:38.563Z,5.00
2018-10-05T15:47:15.000Z,4.80
2018-10-05T15:49:50.373Z,16.93
2018-10-05T15:52:25.830Z,4.93
2018-10-05T15:55:01.243Z,4.90
2018-10-05T15:57:36.620Z,5.67
2018-10-05T16:00:12.115Z,3.30
2018-10-05T16:02:47.293Z,6.70
2018-10-05T16:05:22.907Z,5.30
2018-10-05T16:07:58.101Z,5.90
2018-10-05T16:10:33.521Z,3.63
2018-10-05T16:13:08.973Z,5.43
2018-10-05T16:15:44.519Z,6.03
2018-10-05T16:18:20.312Z,9.50
2018-10-05T16:20:55.681Z,6.37
2018-10-05T16:23:31.045Z,5.60
2018-10-05T16:26:06.519Z,4.80
2018-10-05T16:28:42.042Z,7.90
2018-10-05T16:31:17.475Z,5.33
2018-10-05T16:33:52.852Z,10.63
2018-10-05T16:36:28.199Z,7.78
2018-10-05T16:39:03.764Z,5.90
2018-10-05T16:41:39.243Z,8.88
2018-10-05T16:44:14.736Z,6.90
2018-10-05T16:46:50.341Z,6.22
2018-10-05T16:49:26.311Z,5.17
2018-10-05T16:52:01.785Z,6.08
2018-10-05T16:54:37.500Z,6.60
2018-10-05T16:57:13.105Z,5.30
2018-10-05T16:59:48.498Z,9.93
2018-10-05T17:02:23.965Z,7.40
2018-10-05T17:04:59.505Z,6.20
2018-10-05T17:07:34.945Z,4.87
2018-10-05T17:10:10.211Z,8.53
2018-10-05T17:12:45.602Z,4.55
2018-10-05T17:15:20.942Z,4.65
2018-10-05T17:17:56.391Z,7.53
2018-10-05T17:20:31.745Z,6.50
2018-10-05T17:23:07.215Z,19.87
2018-10-05T17:25:42.535Z,17.52
2018-10-05T17:28:17.841Z,19.87
2018-10-05T17:30:53.235Z,7.42
2018-10-05T17:33:28.846Z,6.10
2018-10-05T17:36:04.187Z,13.95
2018-10-05T17:38:39.763Z,8.85
2018-10-05T17:41:15.281Z,8.55
2018-10-05T17:43:50.785Z,69.72
2018-10-05T17:46:26.315Z,14.03
2018-10-05T17:49:01.894Z,5.10
2018-10-05T17:51:37.422Z,5.55
2018-10-05T17:54:13.125Z,5.97
2018-10-05T17:56:48.692Z,8.33
2018-10-05T17:59:24.176Z,6.53
2018-10-05T18:01:59.571Z,6.83
2018-10-05T18:04:34.842Z,8.75
2018-10-05T18:07:10.191Z,8.33
2018-10-05T18:09:45.552Z,6.30
2018-10-05T18:12:20.913Z,5.95
2018-10-05T18:14:56.308Z,9.63
2018-10-05T18:17:31.852Z,9.05
2018-10-05T18:20:07.569Z,6.22
2018-10-05T18:22:43.047Z,5.67
2018-10-05T18:25:18.306Z,7.47
2018-10-05T18:27:53.642Z,10.38
2018-10-05T18:30:29.183Z,7.28
2018-10-05T18:33:04.575Z,7.17
2018-10-05T18:35:40.172Z,5.05
2018-10-05T18:38:15.656Z,6.62
2018-10-05T18:40:51.252Z,10.05
2018-10-05T18:43:26.673Z,7.53
2018-10-05T18:46:02.133Z,5.78
2018-10-05T18:48:37.546Z,8.00
2018-10-05T18:51:13.102Z,6.47
2018-10-05T18:53:48.855Z,9.03
2018-10-05T18:56:35.224Z,9.68
2018-10-05T18:59:10.582Z,5.37
2018-10-05T19:01:46.257Z,7.37
2018-10-05T19:04:21.706Z,6.40
2018-10-05T19:06:56.942Z,10.35
2018-10-05T19:09:32.643Z,8.35
2018-10-05T19:12:08.506Z,7.33
2018-10-05T19:14:43.864Z,7.33
2018-10-05T19:17:19.486Z,8.48
2018-10-05T19:19:54.942Z,7.28
2018-10-05T19:22:30.444Z,6.37
2018-10-05T19:25:06.073Z,6.62
2018-10-05T19:27:41.585Z,12.05
2018-10-05T19:30:17.054Z,9.28
2018-10-05T19:32:52.467Z,10.18
2018-10-05T19:35:27.911Z,9.18
2018-10-05T19:38:03.491Z,9.95
2018-10-05T19:40:38.921Z,6.40
2018-10-05T19:43:14.462Z,10.60
2018-10-05T19:45:49.914Z,8.98
2018-10-05T19:48:25.149Z,12.37
2018-10-05T19:51:00.391Z,7.95
2018-10-05T19:53:35.893Z,7.92
2018-10-05T19:56:11.381Z,8.95
2018-10-05T19:58:46.923Z,7.60
2018-10-05T20:01:22.941Z,10.78
2018-10-05T20:03:58.229Z,8.63
2018-10-05T20:06:33.594Z,10.55
2018-10-05T20:09:09.354Z,7.25
2018-10-05T20:11:45.585Z,13.53
2018-10-05T20:14:20.945Z,20.20
2018-10-05T20:16:56.591Z,18.20
2018-10-05T20:19:32.346Z,14.95
2018-10-05T20:22:08.724Z,16.02
2018-10-05T20:24:44.283Z,12.58
2018-10-05T20:27:19.824Z,17.07
2018-10-05T20:29:55.107Z,8.95
2018-10-05T20:32:30.352Z,8.88
2018-10-05T20:35:05.621Z,9.70
2018-10-05T20:37:41.007Z,9.33
2018-10-05T20:40:16.125Z,8.60
2018-10-05T20:42:51.345Z,10.20
2018-10-05T20:45:26.663Z,13.08
2018-10-05T20:48:01.896Z,12.58
2018-10-05T20:50:37.201Z,11.12
2018-10-05T20:53:12.711Z,7.28
2018-10-05T20:55:48.240Z,7.17
2018-10-05T20:58:23.462Z,9.25
2018-10-05T21:00:58.918Z,9.20
2018-10-05T21:03:34.362Z,11.75
2018-10-05T21:06:09.934Z,8.35
2018-10-05T21:08:45.532Z,8.83
2018-10-05T21:11:21.021Z,10.45
2018-10-05T21:13:56.397Z,9.55
2018-10-05T21:16:31.912Z,8.10
2018-10-05T21:19:07.803Z,8.03
2018-10-05T21:21:43.112Z,6.70
2018-10-05T21:24:18.412Z,9.58
2018-10-05T21:26:53.681Z,7.90
2018-10-05T21:29:29.029Z,11.57
2018-10-05T21:32:04.394Z,10.90
2018-10-05T21:34:39.899Z,11.90
2018-10-05T21:37:15.574Z,10.50
2018-10-05T21:39:50.788Z,9.00
2018-10-05T21:42:26.176Z,10.18
2018-10-05T21:45:01.686Z,8.88
2018-10-05T21:47:36.803Z,11.45
2018-10-05T21:50:12.141Z,7.70
2018-10-05T21:52:47.645Z,17.92
2018-10-05T21:55:22.938Z,10.00
2018-10-05T21:57:58.605Z,11.43
2018-10-05T22:00:40.405Z,8.85
2018-10-05T22:03:15.803Z,10.93
2018-10-05T22:05:51.276Z,11.30
2018-10-05T22:08:26.506Z,11.28
2018-10-05T22:11:02.290Z,12.65
2018-10-05T22:13:37.901Z,11.73
2018-10-05T22:16:13.595Z,13.22
2018-10-05T22:18:48.905Z,10.23
2018-10-05T22:21:24.254Z,13.58
2018-10-05T22:23:59.798Z,16.35
2018-10-05T22:26:35.122Z,11.30
2018-10-05T22:29:10.504Z,14.00
2018-10-05T22:31:45.827Z,10.90
2018-10-05T22:34:21.261Z,11.38
2018-10-05T22:36:56.605Z,11.75
2018-10-05T22:39:31.936Z,11.03
2018-10-05T22:42:07.394Z,11.60
2018-10-05T22:44:42.936Z,9.35
2018-10-05T22:47:18.351Z,12.75
2018-10-05T22:49:53.742Z,16.25
2018-10-05T22:52:29.384Z,10.58
2018-10-05T22:55:05.034Z,13.43
2018-10-05T22:57:40.281Z,9.23
2018-10-05T23:00:15.805Z,11.78
2018-10-05T23:02:51.164Z,11.50
2018-10-05T23:05:26.564Z,15.70
2018-10-05T23:08:02.147Z,12.43
2018-10-05T23:10:37.564Z,10.98
2018-10-05T23:13:12.804Z,10.85
2018-10-05T23:15:48.363Z,13.85
2018-10-05T23:18:23.771Z,15.00
2018-10-05T23:20:59.242Z,18.00
2018-10-05T23:23:34.564Z,9.35
2018-10-05T23:26:10.286Z,11.40
2018-10-05T23:28:45.815Z,14.73
2018-10-05T23:31:21.094Z,13.88
2018-10-05T23:33:56.242Z,16.37
2018-10-05T23:36:31.598Z,17.30
2018-10-05T23:39:09.411Z,15.45
2018-10-05T23:41:44.866Z,15.50
2018-10-05T23:44:20.494Z,17.45
2018-10-05T23:46:55.953Z,18.23
2018-10-05T23:49:31.514Z,14.33
2018-10-05T23:52:53.011Z,16.67
2018-10-05T23:55:28.571Z,12.37
2018-10-05T23:58:03.924Z,13.25
